sensor_id;sensor_type;location;lat;lon;timestamp;P1;durP1;ratioP1;P2;durP2;ratioP2
505;SDS011;551;48.524;9.056;2022-11-27T00:00:59;81.07;;;14.97;;
505;SDS011;551;48.524;9.056;2022-11-27T00:03:32;54.77;;;14.23;;
505;SDS011;551;48.524;9.056;2022-11-27T00:05:57;45.03;;;12.73;;
505;SDS011;551;48.524;9.056;2022-11-27T00:08:23;58.23;;;13.90;;
505;SDS011;551;48.524;9.056;2022-11-27T00:10:49;29.83;;;11.20;;
505;SDS011;551;48.524;9.056;2022-11-27T00:13:15;39.47;;;12.67;;
505;SDS011;551;48.524;9.056;2022-11-27T00:15:41;55.60;;;13.40;;
505;SDS011;551;48.524;9.056;2022-11-27T00:18:07;59.97;;;12.43;;
505;SDS011;551;48.524;9.056;2022-11-27T00:20:32;49.03;;;13.43;;
505;SDS011;551;48.524;9.056;2022-11-27T00:22:58;94.47;;;13.87;;
505;SDS011;551;48.524;9.056;2022-11-27T00:25:23;71.23;;;14.07;;
505;SDS011;551;48.524;9.056;2022-11-27T00:27:49;53.20;;;12.23;;
505;SDS011;551;48.524;9.056;2022-11-27T00:30:14;40.30;;;11.60;;
505;SDS011;551;48.524;9.056;2022-11-27T00:32:40;71.37;;;13.87;;
505;SDS011;551;48.524;9.056;2022-11-27T00:35:06;65.37;;;15.80;;
505;SDS011;551;48.524;9.056;2022-11-27T00:37:32;48.70;;;13.10;;
505;SDS011;551;48.524;9.056;2022-11-27T00:39:57;31.33;;;11.10;;
505;SDS011;551;48.524;9.056;2022-11-27T00:42:23;72.97;;;14.93;;
505;SDS011;551;48.524;9.056;2022-11-27T00:44:48;28.20;;;11.43;;
505;SDS011;551;48.524;9.056;2022-11-27T00:47:14;45.87;;;12.10;;
505;SDS011;551;48.524;9.056;2022-11-27T00:49:39;62.00;;;11.77;;
505;SDS011;551;48.524;9.056;2022-11-27T00:52:05;41.00;;;11.17;;
505;SDS011;551;48.524;9.056;2022-11-27T00:54:30;55.23;;;12.80;;
505;SDS011;551;48.524;9.056;2022-11-27T00:56:56;63.87;;;13.10;;
505;SDS011;551;48.524;9.056;2022-11-27T00:59:21;59.40;;;11.77;;
505;SDS011;551;48.524;9.056;2022-11-27T01:01:47;39.70;;;11.53;;
505;SDS011;551;48.524;9.056;2022-11-27T01:04:13;94.40;;;14.43;;
505;SDS011;551;48.524;9.056;2022-11-27T01:06:39;46.17;;;11.37;;
505;SDS011;551;48.524;9.056;2022-11-27T01:09:06;87.20;;;13.80;;
505;SDS011;551;48.524;9.056;2022-11-27T01:11:32;37.17;;;11.17;;
505;SDS011;551;48.524;9.056;2022-11-27T01:14:04;76.33;;;13.90;;
505;SDS011;551;48.524;9.056;2022-11-27T01:16:32;54.77;;;11.80;;
505;SDS011;551;48.524;9.056;2022-11-27T01:18:59;60.90;;;12.90;;
505;SDS011;551;48.524;9.056;2022-11-27T01:21:27;53.70;;;10.73;;
505;SDS011;551;48.524;9.056;2022-11-27T01:23:53;97.37;;;13.60;;
505;SDS011;551;48.524;9.056;2022-11-27T01:26:19;88.17;;;14.23;;
505;SDS011;551;48.524;9.056;2022-11-27T01:28:45;29.20;;;10.77;;
505;SDS011;551;48.524;9.056;2022-11-27T01:31:13;46.63;;;10.90;;
505;SDS011;551;48.524;9.056;2022-11-27T01:33:40;38.37;;;9.83;;
505;SDS011;551;48.524;9.056;2022-11-27T01:36:07;67.07;;;12.20;;
505;SDS011;551;48.524;9.056;2022-11-27T01:38:34;39.67;;;9.83;;
505;SDS011;551;48.524;9.056;2022-11-27T01:43:47;38.97;;;11.63;;
505;SDS011;551;48.524;9.056;2022-11-27T01:46:29;47.73;;;10.23;;
505;SDS011;551;48.524;9.056;2022-11-27T01:51:34;34.63;;;10.67;;
505;SDS011;551;48.524;9.056;2022-11-27T01:54:06;67.43;;;12.37;;
505;SDS011;551;48.524;9.056;2022-11-27T01:56:33;39.67;;;10.90;;
505;SDS011;551;48.524;9.056;2022-11-27T01:58:59;37.13;;;10.43;;
505;SDS011;551;48.524;9.056;2022-11-27T02:01:26;78.17;;;12.40;;
505;SDS011;551;48.524;9.056;2022-11-27T02:03:52;44.27;;;9.40;;
505;SDS011;551;48.524;9.056;2022-11-27T02:06:21;87.80;;;12.30;;
505;SDS011;551;48.524;9.056;2022-11-27T02:08:47;36.80;;;8.40;;
505;SDS011;551;48.524;9.056;2022-11-27T02:16:56;64.30;;;11.83;;
505;SDS011;551;48.524;9.056;2022-11-27T02:27:37;20.07;;;9.07;;
505;SDS011;551;48.524;9.056;2022-11-27T02:30:25;82.97;;;13.00;;
505;SDS011;551;48.524;9.056;2022-11-27T02:35:30;80.73;;;12.10;;
505;SDS011;551;48.524;9.056;2022-11-27T02:38:28;66.40;;;12.20;;
505;SDS011;551;48.524;9.056;2022-11-27T02:40:59;39.93;;;10.60;;
505;SDS011;551;48.524;9.056;2022-11-27T02:43:37;30.97;;;9.90;;
505;SDS011;551;48.524;9.056;2022-11-27T02:46:11;40.13;;;9.70;;
505;SDS011;551;48.524;9.056;2022-11-27T02:48:47;67.07;;;13.13;;
505;SDS011;551;48.524;9.056;2022-11-27T02:51:18;39.03;;;10.40;;
505;SDS011;551;48.524;9.056;2022-11-27T02:53:59;44.73;;;10.20;;
505;SDS011;551;48.524;9.056;2022-11-27T02:56:28;58.23;;;10.20;;
505;SDS011;551;48.524;9.056;2022-11-27T02:58:56;88.80;;;12.87;;
505;SDS011;551;48.524;9.056;2022-11-27T03:01:26;62.13;;;15.33;;
505;SDS011;551;48.524;9.056;2022-11-27T03:03:56;74.40;;;12.70;;
505;SDS011;551;48.524;9.056;2022-11-27T03:06:28;49.23;;;11.47;;
505;SDS011;551;48.524;9.056;2022-11-27T03:08:58;52.03;;;12.43;;
505;SDS011;551;48.524;9.056;2022-11-27T03:11:29;62.03;;;10.83;;
505;SDS011;551;48.524;9.056;2022-11-27T03:14:02;47.40;;;10.47;;
505;SDS011;551;48.524;9.056;2022-11-27T03:21:58;32.17;;;8.40;;
505;SDS011;551;48.524;9.056;2022-11-27T03:24:26;63.83;;;10.27;;
505;SDS011;551;48.524;9.056;2022-11-27T03:26:53;36.70;;;8.73;;
505;SDS011;551;48.524;9.056;2022-11-27T03:29:20;37.83;;;8.83;;
505;SDS011;551;48.524;9.056;2022-11-27T03:32:00;80.37;;;11.90;;
505;SDS011;551;48.524;9.056;2022-11-27T03:34:26;88.37;;;10.17;;
505;SDS011;551;48.524;9.056;2022-11-27T03:36:55;107.07;;;13.03;;
505;SDS011;551;48.524;9.056;2022-11-27T03:39:20;62.90;;;8.37;;
505;SDS011;551;48.524;9.056;2022-11-27T03:47:41;36.20;;;8.70;;
505;SDS011;551;48.524;9.056;2022-11-27T03:53:17;45.77;;;8.00;;
505;SDS011;551;48.524;9.056;2022-11-27T03:58:57;41.47;;;8.93;;
505;SDS011;551;48.524;9.056;2022-11-27T04:01:07;27.53;;;8.70;;
505;SDS011;551;48.524;9.056;2022-11-27T04:03:37;112.77;;;13.00;;
505;SDS011;551;48.524;9.056;2022-11-27T04:06:03;24.73;;;7.73;;
505;SDS011;551;48.524;9.056;2022-11-27T04:08:28;40.50;;;8.97;;
505;SDS011;551;48.524;9.056;2022-11-27T04:10:54;34.40;;;8.13;;
505;SDS011;551;48.524;9.056;2022-11-27T04:13:19;56.70;;;10.70;;
505;SDS011;551;48.524;9.056;2022-11-27T04:15:45;149.23;;;13.27;;
505;SDS011;551;48.524;9.056;2022-11-27T04:18:10;39.27;;;7.40;;
505;SDS011;551;48.524;9.056;2022-11-27T04:20:36;33.30;;;8.13;;
505;SDS011;551;48.524;9.056;2022-11-27T04:23:02;41.53;;;7.80;;
505;SDS011;551;48.524;9.056;2022-11-27T04:25:27;115.87;;;10.00;;
505;SDS011;551;48.524;9.056;2022-11-27T04:27:53;59.97;;;8.73;;
505;SDS011;551;48.524;9.056;2022-11-27T04:30:19;39.40;;;6.43;;
505;SDS011;551;48.524;9.056;2022-11-27T04:32:44;55.80;;;8.63;;
505;SDS011;551;48.524;9.056;2022-11-27T04:35:10;67.83;;;9.17;;
505;SDS011;551;48.524;9.056;2022-11-27T04:37:36;64.30;;;9.33;;
505;SDS011;551;48.524;9.056;2022-11-27T04:40:02;51.60;;;7.63;;
505;SDS011;551;48.524;9.056;2022-11-27T04:42:28;48.10;;;8.77;;
505;SDS011;551;48.524;9.056;2022-11-27T04:44:56;45.73;;;7.77;;
505;SDS011;551;48.524;9.056;2022-11-27T04:47:22;66.50;;;8.50;;
505;SDS011;551;48.524;9.056;2022-11-27T04:49:47;84.57;;;8.80;;
505;SDS011;551;48.524;9.056;2022-11-27T04:52:13;32.23;;;7.70;;
505;SDS011;551;48.524;9.056;2022-11-27T04:54:38;26.37;;;7.90;;
505;SDS011;551;48.524;9.056;2022-11-27T04:57:04;51.23;;;9.07;;
505;SDS011;551;48.524;9.056;2022-11-27T04:59:30;89.83;;;10.17;;
505;SDS011;551;48.524;9.056;2022-11-27T05:01:56;67.77;;;8.50;;
505;SDS011;551;48.524;9.056;2022-11-27T05:04:22;54.30;;;7.77;;
505;SDS011;551;48.524;9.056;2022-11-27T05:06:47;69.77;;;8.47;;
505;SDS011;551;48.524;9.056;2022-11-27T05:09:13;59.00;;;9.10;;
505;SDS011;551;48.524;9.056;2022-11-27T05:11:40;36.50;;;7.20;;
505;SDS011;551;48.524;9.056;2022-11-27T05:14:06;90.37;;;8.90;;
505;SDS011;551;48.524;9.056;2022-11-27T05:19:13;40.50;;;8.40;;
505;SDS011;551;48.524;9.056;2022-11-27T05:21:40;60.93;;;8.97;;
505;SDS011;551;48.524;9.056;2022-11-27T05:24:06;35.27;;;7.20;;
505;SDS011;551;48.524;9.056;2022-11-27T05:26:32;38.10;;;7.50;;
505;SDS011;551;48.524;9.056;2022-11-27T05:28:58;75.20;;;9.60;;
505;SDS011;551;48.524;9.056;2022-11-27T05:31:24;46.47;;;8.03;;
505;SDS011;551;48.524;9.056;2022-11-27T05:33:49;11.10;;;5.73;;
505;SDS011;551;48.524;9.056;2022-11-27T05:36:16;8.87;;;6.10;;
505;SDS011;551;48.524;9.056;2022-11-27T05:38:41;19.47;;;5.60;;
505;SDS011;551;48.524;9.056;2022-11-27T05:41:07;50.83;;;7.40;;
505;SDS011;551;48.524;9.056;2022-11-27T05:43:33;56.77;;;7.70;;
505;SDS011;551;48.524;9.056;2022-11-27T05:45:58;58.73;;;8.87;;
505;SDS011;551;48.524;9.056;2022-11-27T05:48:29;30.80;;;6.60;;
505;SDS011;551;48.524;9.056;2022-11-27T05:50:54;45.63;;;7.63;;
505;SDS011;551;48.524;9.056;2022-11-27T05:53:21;52.33;;;8.10;;
505;SDS011;551;48.524;9.056;2022-11-27T05:55:46;49.80;;;6.23;;
505;SDS011;551;48.524;9.056;2022-11-27T05:58:14;37.17;;;7.00;;
505;SDS011;551;48.524;9.056;2022-11-27T06:00:39;22.70;;;6.40;;
505;SDS011;551;48.524;9.056;2022-11-27T06:03:05;12.47;;;5.90;;
505;SDS011;551;48.524;9.056;2022-11-27T06:05:31;32.60;;;6.70;;
505;SDS011;551;48.524;9.056;2022-11-27T06:07:56;37.33;;;6.23;;
505;SDS011;551;48.524;9.056;2022-11-27T06:10:22;26.30;;;7.67;;
505;SDS011;551;48.524;9.056;2022-11-27T06:12:47;17.77;;;7.00;;
505;SDS011;551;48.524;9.056;2022-11-27T06:15:13;12.00;;;5.70;;
505;SDS011;551;48.524;9.056;2022-11-27T06:17:38;14.93;;;5.40;;
505;SDS011;551;48.524;9.056;2022-11-27T06:20:04;20.07;;;6.23;;
505;SDS011;551;48.524;9.056;2022-11-27T06:22:30;20.63;;;6.20;;
505;SDS011;551;48.524;9.056;2022-11-27T06:24:58;8.20;;;4.93;;
505;SDS011;551;48.524;9.056;2022-11-27T06:27:24;39.87;;;6.57;;
505;SDS011;551;48.524;9.056;2022-11-27T06:29:49;13.47;;;6.80;;
505;SDS011;551;48.524;9.056;2022-11-27T06:32:15;9.00;;;5.67;;
505;SDS011;551;48.524;9.056;2022-11-27T06:34:40;27.57;;;5.97;;
505;SDS011;551;48.524;9.056;2022-11-27T06:37:06;14.10;;;6.60;;
505;SDS011;551;48.524;9.056;2022-11-27T06:39:31;13.23;;;5.70;;
505;SDS011;551;48.524;9.056;2022-11-27T06:41:57;8.43;;;5.33;;
505;SDS011;551;48.524;9.056;2022-11-27T06:44:22;15.67;;;5.93;;
505;SDS011;551;48.524;9.056;2022-11-27T06:46:48;20.37;;;6.40;;
505;SDS011;551;48.524;9.056;2022-11-27T06:49:13;33.53;;;7.10;;
505;SDS011;551;48.524;9.056;2022-11-27T06:51:39;19.87;;;6.07;;
505;SDS011;551;48.524;9.056;2022-11-27T06:54:04;56.10;;;7.13;;
505;SDS011;551;48.524;9.056;2022-11-27T06:56:30;60.27;;;7.40;;
505;SDS011;551;48.524;9.056;2022-11-27T06:58:57;13.73;;;6.50;;
505;SDS011;551;48.524;9.056;2022-11-27T07:01:24;49.57;;;7.80;;
505;SDS011;551;48.524;9.056;2022-11-27T07:03:51;30.07;;;6.97;;
505;SDS011;551;48.524;9.056;2022-11-27T07:06:17;15.43;;;6.30;;
505;SDS011;551;48.524;9.056;2022-11-27T07:08:45;41.20;;;6.70;;
505;SDS011;551;48.524;9.056;2022-11-27T07:11:15;37.03;;;6.93;;
505;SDS011;551;48.524;9.056;2022-11-27T07:13:43;17.60;;;5.07;;
505;SDS011;551;48.524;9.056;2022-11-27T07:16:10;22.13;;;6.63;;
505;SDS011;551;48.524;9.056;2022-11-27T07:18:38;20.50;;;6.40;;
505;SDS011;551;48.524;9.056;2022-11-27T07:21:08;37.17;;;7.13;;
505;SDS011;551;48.524;9.056;2022-11-27T07:23:34;39.50;;;6.90;;
505;SDS011;551;48.524;9.056;2022-11-27T07:26:07;22.50;;;7.67;;
505;SDS011;551;48.524;9.056;2022-11-27T07:28:34;11.30;;;6.60;;
505;SDS011;551;48.524;9.056;2022-11-27T07:31:00;9.27;;;5.43;;
505;SDS011;551;48.524;9.056;2022-11-27T07:33:26;12.27;;;5.70;;
505;SDS011;551;48.524;9.056;2022-11-27T07:36:27;9.43;;;5.80;;
505;SDS011;551;48.524;9.056;2022-11-27T07:38:45;9.53;;;6.10;;
505;SDS011;551;48.524;9.056;2022-11-27T07:41:12;6.50;;;5.67;;
505;SDS011;551;48.524;9.056;2022-11-27T07:43:38;6.40;;;5.10;;
505;SDS011;551;48.524;9.056;2022-11-27T07:46:04;5.90;;;5.23;;
505;SDS011;551;48.524;9.056;2022-11-27T07:48:31;7.17;;;5.33;;
505;SDS011;551;48.524;9.056;2022-11-27T07:50:57;6.90;;;4.60;;
505;SDS011;551;48.524;9.056;2022-11-27T07:53:22;7.83;;;5.70;;
505;SDS011;551;48.524;9.056;2022-11-27T07:55:48;6.40;;;5.50;;
505;SDS011;551;48.524;9.056;2022-11-27T07:58:13;6.60;;;5.23;;
505;SDS011;551;48.524;9.056;2022-11-27T08:00:39;6.40;;;5.43;;
505;SDS011;551;48.524;9.056;2022-11-27T08:03:04;5.80;;;5.20;;
505;SDS011;551;48.524;9.056;2022-11-27T08:05:32;5.50;;;4.90;;
505;SDS011;551;48.524;9.056;2022-11-27T08:07:59;7.53;;;5.67;;
505;SDS011;551;48.524;9.056;2022-11-27T08:10:25;6.07;;;5.43;;
505;SDS011;551;48.524;9.056;2022-11-27T08:12:51;7.63;;;5.33;;
505;SDS011;551;48.524;9.056;2022-11-27T08:15:16;8.20;;;5.17;;
505;SDS011;551;48.524;9.056;2022-11-27T08:17:42;8.60;;;6.00;;
505;SDS011;551;48.524;9.056;2022-11-27T08:20:08;4.90;;;4.40;;
505;SDS011;551;48.524;9.056;2022-11-27T08:22:33;7.47;;;4.57;;
505;SDS011;551;48.524;9.056;2022-11-27T08:24:59;5.57;;;4.70;;
505;SDS011;551;48.524;9.056;2022-11-27T08:27:25;4.50;;;4.10;;
505;SDS011;551;48.524;9.056;2022-11-27T08:29:50;4.30;;;3.70;;
505;SDS011;551;48.524;9.056;2022-11-27T08:32:16;4.00;;;3.70;;
505;SDS011;551;48.524;9.056;2022-11-27T08:34:41;4.00;;;3.60;;
505;SDS011;551;48.524;9.056;2022-11-27T08:37:07;4.50;;;4.10;;
505;SDS011;551;48.524;9.056;2022-11-27T08:39:32;4.23;;;3.50;;
505;SDS011;551;48.524;9.056;2022-11-27T08:41:58;5.23;;;4.20;;
505;SDS011;551;48.524;9.056;2022-11-27T08:44:24;5.73;;;3.50;;
505;SDS011;551;48.524;9.056;2022-11-27T08:46:49;5.07;;;4.57;;
505;SDS011;551;48.524;9.056;2022-11-27T08:49:15;7.37;;;4.83;;
505;SDS011;551;48.524;9.056;2022-11-27T08:51:40;9.53;;;6.00;;
505;SDS011;551;48.524;9.056;2022-11-27T08:54:06;7.37;;;5.93;;
505;SDS011;551;48.524;9.056;2022-11-27T08:56:32;5.20;;;4.80;;
505;SDS011;551;48.524;9.056;2022-11-27T08:58:57;4.87;;;4.47;;
505;SDS011;551;48.524;9.056;2022-11-27T09:01:27;4.80;;;4.40;;
505;SDS011;551;48.524;9.056;2022-11-27T09:03:54;6.27;;;5.67;;
505;SDS011;551;48.524;9.056;2022-11-27T09:06:24;8.53;;;5.90;;
505;SDS011;551;48.524;9.056;2022-11-27T09:08:55;7.53;;;6.60;;
505;SDS011;551;48.524;9.056;2022-11-27T09:11:22;7.00;;;6.03;;
505;SDS011;551;48.524;9.056;2022-11-27T09:13:47;6.30;;;5.50;;
505;SDS011;551;48.524;9.056;2022-11-27T09:16:14;6.03;;;5.47;;
505;SDS011;551;48.524;9.056;2022-11-27T09:18:45;6.17;;;5.63;;
505;SDS011;551;48.524;9.056;2022-11-27T09:21:12;7.40;;;5.53;;
505;SDS011;551;48.524;9.056;2022-11-27T09:23:38;5.73;;;5.23;;
505;SDS011;551;48.524;9.056;2022-11-27T09:26:06;7.97;;;6.73;;
505;SDS011;551;48.524;9.056;2022-11-27T09:28:34;6.70;;;5.70;;
505;SDS011;551;48.524;9.056;2022-11-27T09:31:01;6.73;;;6.07;;
505;SDS011;551;48.524;9.056;2022-11-27T09:33:29;8.13;;;6.50;;
505;SDS011;551;48.524;9.056;2022-11-27T09:35:56;6.50;;;5.70;;
505;SDS011;551;48.524;9.056;2022-11-27T09:38:22;7.63;;;6.33;;
505;SDS011;551;48.524;9.056;2022-11-27T09:40:48;7.20;;;6.50;;
505;SDS011;551;48.524;9.056;2022-11-27T09:43:16;7.43;;;6.80;;
505;SDS011;551;48.524;9.056;2022-11-27T09:45:47;7.43;;;6.50;;
505;SDS011;551;48.524;9.056;2022-11-27T09:48:18;7.43;;;5.83;;
505;SDS011;551;48.524;9.056;2022-11-27T09:50:50;9.60;;;7.00;;
505;SDS011;551;48.524;9.056;2022-11-27T09:55:57;8.27;;;6.53;;
505;SDS011;551;48.524;9.056;2022-11-27T09:58:34;7.90;;;5.93;;
505;SDS011;551;48.524;9.056;2022-11-27T10:01:08;6.10;;;5.60;;
505;SDS011;551;48.524;9.056;2022-11-27T10:03:42;7.60;;;6.90;;
505;SDS011;551;48.524;9.056;2022-11-27T10:06:16;6.77;;;6.07;;
505;SDS011;551;48.524;9.056;2022-11-27T10:09:05;10.20;;;6.90;;
505;SDS011;551;48.524;9.056;2022-11-27T10:11:47;7.40;;;6.00;;
505;SDS011;551;48.524;9.056;2022-11-27T10:14:37;7.53;;;6.60;;
505;SDS011;551;48.524;9.056;2022-11-27T10:17:14;6.17;;;5.67;;
505;SDS011;551;48.524;9.056;2022-11-27T10:19:52;6.27;;;5.63;;
505;SDS011;551;48.524;9.056;2022-11-27T10:22:49;5.97;;;5.37;;
505;SDS011;551;48.524;9.056;2022-11-27T10:25:28;5.77;;;5.27;;
505;SDS011;551;48.524;9.056;2022-11-27T10:30:50;6.53;;;5.90;;
505;SDS011;551;48.524;9.056;2022-11-27T10:33:21;6.00;;;5.40;;
505;SDS011;551;48.524;9.056;2022-11-27T10:35:51;7.80;;;6.07;;
505;SDS011;551;48.524;9.056;2022-11-27T10:38:21;6.03;;;5.43;;
505;SDS011;551;48.524;9.056;2022-11-27T10:40:56;6.87;;;6.17;;
505;SDS011;551;48.524;9.056;2022-11-27T10:43:51;6.97;;;5.90;;
505;SDS011;551;48.524;9.056;2022-11-27T10:46:30;7.20;;;5.30;;
505;SDS011;551;48.524;9.056;2022-11-27T10:49:01;9.00;;;6.07;;
505;SDS011;551;48.524;9.056;2022-11-27T10:51:31;9.20;;;4.93;;
505;SDS011;551;48.524;9.056;2022-11-27T10:54:00;6.93;;;6.33;;
505;SDS011;551;48.524;9.056;2022-11-27T10:56:48;5.70;;;5.20;;
505;SDS011;551;48.524;9.056;2022-11-27T10:59:23;6.80;;;5.67;;
505;SDS011;551;48.524;9.056;2022-11-27T11:01:54;6.50;;;5.90;;
505;SDS011;551;48.524;9.056;2022-11-27T11:04:26;6.30;;;5.57;;
505;SDS011;551;48.524;9.056;2022-11-27T11:06:53;6.30;;;5.80;;
505;SDS011;551;48.524;9.056;2022-11-27T11:11:50;7.70;;;6.17;;
505;SDS011;551;48.524;9.056;2022-11-27T11:14:17;6.37;;;5.77;;
505;SDS011;551;48.524;9.056;2022-11-27T11:16:44;6.67;;;5.70;;
505;SDS011;551;48.524;9.056;2022-11-27T11:22:11;6.20;;;5.20;;
505;SDS011;551;48.524;9.056;2022-11-27T11:24:38;5.53;;;5.03;;
505;SDS011;551;48.524;9.056;2022-11-27T11:27:13;6.53;;;5.63;;
505;SDS011;551;48.524;9.056;2022-11-27T11:29:45;5.53;;;5.03;;
505;SDS011;551;48.524;9.056;2022-11-27T11:32:30;5.33;;;4.93;;
505;SDS011;551;48.524;9.056;2022-11-27T11:34:59;8.70;;;6.20;;
505;SDS011;551;48.524;9.056;2022-11-27T11:37:29;6.80;;;6.20;;
505;SDS011;551;48.524;9.056;2022-11-27T11:42:53;6.97;;;6.17;;
505;SDS011;551;48.524;9.056;2022-11-27T11:45:22;7.33;;;6.63;;
505;SDS011;551;48.524;9.056;2022-11-27T11:47:53;12.23;;;7.00;;
505;SDS011;551;48.524;9.056;2022-11-27T11:50:26;8.60;;;6.27;;
505;SDS011;551;48.524;9.056;2022-11-27T11:52:58;6.93;;;6.10;;
505;SDS011;551;48.524;9.056;2022-11-27T11:58:20;7.20;;;5.97;;
505;SDS011;551;48.524;9.056;2022-11-27T12:03:49;6.20;;;5.60;;
505;SDS011;551;48.524;9.056;2022-11-27T12:06:31;10.00;;;7.67;;
505;SDS011;551;48.524;9.056;2022-11-27T12:09:10;8.33;;;7.20;;
505;SDS011;551;48.524;9.056;2022-11-27T12:14:35;8.27;;;7.17;;
505;SDS011;551;48.524;9.056;2022-11-27T12:17:31;7.70;;;6.90;;
505;SDS011;551;48.524;9.056;2022-11-27T12:25:40;9.03;;;7.90;;
505;SDS011;551;48.524;9.056;2022-11-27T12:31:01;8.03;;;6.33;;
505;SDS011;551;48.524;9.056;2022-11-27T12:39:02;5.63;;;5.10;;
505;SDS011;551;48.524;9.056;2022-11-27T12:44:49;4.83;;;3.80;;
505;SDS011;551;48.524;9.056;2022-11-27T12:47:29;4.73;;;4.23;;
505;SDS011;551;48.524;9.056;2022-11-27T12:50:49;4.30;;;3.90;;
505;SDS011;551;48.524;9.056;2022-11-27T12:52:59;5.13;;;4.70;;
505;SDS011;551;48.524;9.056;2022-11-27T12:55:35;7.63;;;5.80;;
505;SDS011;551;48.524;9.056;2022-11-27T12:58:19;6.47;;;4.83;;
505;SDS011;551;48.524;9.056;2022-11-27T13:00:50;5.00;;;4.50;;
505;SDS011;551;48.524;9.056;2022-11-27T13:03:39;5.43;;;4.87;;
505;SDS011;551;48.524;9.056;2022-11-27T13:06:13;7.53;;;5.43;;
505;SDS011;551;48.524;9.056;2022-11-27T13:08:58;7.20;;;6.50;;
505;SDS011;551;48.524;9.056;2022-11-27T13:11:30;7.30;;;6.50;;
505;SDS011;551;48.524;9.056;2022-11-27T13:14:02;8.63;;;6.50;;
505;SDS011;551;48.524;9.056;2022-11-27T13:17:10;7.30;;;6.43;;
505;SDS011;551;48.524;9.056;2022-11-27T13:19:32;7.90;;;6.53;;
505;SDS011;551;48.524;9.056;2022-11-27T13:22:05;7.23;;;6.23;;
505;SDS011;551;48.524;9.056;2022-11-27T13:24:36;7.10;;;6.40;;
505;SDS011;551;48.524;9.056;2022-11-27T13:32:25;8.17;;;7.30;;
505;SDS011;551;48.524;9.056;2022-11-27T13:34:55;10.13;;;6.93;;
505;SDS011;551;48.524;9.056;2022-11-27T13:37:35;6.07;;;5.47;;
505;SDS011;551;48.524;9.056;2022-11-27T13:40:12;6.17;;;5.57;;
505;SDS011;551;48.524;9.056;2022-11-27T13:42:41;8.00;;;6.43;;
505;SDS011;551;48.524;9.056;2022-11-27T13:45:18;6.30;;;5.80;;
505;SDS011;551;48.524;9.056;2022-11-27T13:47:47;8.37;;;7.33;;
505;SDS011;551;48.524;9.056;2022-11-27T13:50:14;7.60;;;6.90;;
505;SDS011;551;48.524;9.056;2022-11-27T13:52:54;12.03;;;8.43;;
505;SDS011;551;48.524;9.056;2022-11-27T13:55:28;9.80;;;7.90;;
505;SDS011;551;48.524;9.056;2022-11-27T13:57:59;11.67;;;8.20;;
505;SDS011;551;48.524;9.056;2022-11-27T14:00:37;8.83;;;6.93;;
505;SDS011;551;48.524;9.056;2022-11-27T14:03:05;10.30;;;8.23;;
505;SDS011;551;48.524;9.056;2022-11-27T14:05:35;11.57;;;7.00;;
505;SDS011;551;48.524;9.056;2022-11-27T14:08:01;7.80;;;7.10;;
505;SDS011;551;48.524;9.056;2022-11-27T14:10:29;9.57;;;7.07;;
505;SDS011;551;48.524;9.056;2022-11-27T14:12:57;10.17;;;7.47;;
505;SDS011;551;48.524;9.056;2022-11-27T14:15:25;10.40;;;8.57;;
505;SDS011;551;48.524;9.056;2022-11-27T14:17:52;9.40;;;8.33;;
505;SDS011;551;48.524;9.056;2022-11-27T14:20:48;11.23;;;7.90;;
505;SDS011;551;48.524;9.056;2022-11-27T14:23:26;9.70;;;8.13;;
505;SDS011;551;48.524;9.056;2022-11-27T14:25:59;10.13;;;8.80;;
505;SDS011;551;48.524;9.056;2022-11-27T14:28:51;9.90;;;7.90;;
505;SDS011;551;48.524;9.056;2022-11-27T14:31:25;11.90;;;7.93;;
505;SDS011;551;48.524;9.056;2022-11-27T14:33:59;9.70;;;8.70;;
505;SDS011;551;48.524;9.056;2022-11-27T14:36:30;9.13;;;7.50;;
505;SDS011;551;48.524;9.056;2022-11-27T14:38:58;11.70;;;7.60;;
505;SDS011;551;48.524;9.056;2022-11-27T14:41:28;12.30;;;8.70;;
505;SDS011;551;48.524;9.056;2022-11-27T14:44:00;10.90;;;8.70;;
505;SDS011;551;48.524;9.056;2022-11-27T14:46:27;12.70;;;9.30;;
505;SDS011;551;48.524;9.056;2022-11-27T14:48:59;19.07;;;8.47;;
505;SDS011;551;48.524;9.056;2022-11-27T14:51:26;11.47;;;8.87;;
505;SDS011;551;48.524;9.056;2022-11-27T14:53:58;9.93;;;8.20;;
505;SDS011;551;48.524;9.056;2022-11-27T14:56:34;11.23;;;9.70;;
505;SDS011;551;48.524;9.056;2022-11-27T14:59:03;11.97;;;10.10;;
505;SDS011;551;48.524;9.056;2022-11-27T15:01:31;12.80;;;10.33;;
505;SDS011;551;48.524;9.056;2022-11-27T15:03:59;14.97;;;9.10;;
505;SDS011;551;48.524;9.056;2022-11-27T15:06:28;15.77;;;10.10;;
505;SDS011;551;48.524;9.056;2022-11-27T15:09:00;12.30;;;9.40;;
505;SDS011;551;48.524;9.056;2022-11-27T15:11:25;12.60;;;10.40;;
505;SDS011;551;48.524;9.056;2022-11-27T15:13:53;12.47;;;10.30;;
505;SDS011;551;48.524;9.056;2022-11-27T15:16:22;13.20;;;10.00;;
505;SDS011;551;48.524;9.056;2022-11-27T15:18:53;16.60;;;9.60;;
505;SDS011;551;48.524;9.056;2022-11-27T15:21:24;11.70;;;9.07;;
505;SDS011;551;48.524;9.056;2022-11-27T15:23:51;12.40;;;9.20;;
505;SDS011;551;48.524;9.056;2022-11-27T15:26:28;15.00;;;10.20;;
505;SDS011;551;48.524;9.056;2022-11-27T15:28:58;13.73;;;10.00;;
505;SDS011;551;48.524;9.056;2022-11-27T15:31:26;13.37;;;10.33;;
505;SDS011;551;48.524;9.056;2022-11-27T15:34:05;12.97;;;9.30;;
505;SDS011;551;48.524;9.056;2022-11-27T15:36:43;11.20;;;8.97;;
505;SDS011;551;48.524;9.056;2022-11-27T15:39:20;16.40;;;11.43;;
505;SDS011;551;48.524;9.056;2022-11-27T15:41:48;18.27;;;13.10;;
505;SDS011;551;48.524;9.056;2022-11-27T15:44:22;15.03;;;10.30;;
505;SDS011;551;48.524;9.056;2022-11-27T15:46:49;16.37;;;11.43;;
505;SDS011;551;48.524;9.056;2022-11-27T15:49:16;14.77;;;10.40;;
505;SDS011;551;48.524;9.056;2022-11-27T15:51:43;15.90;;;10.60;;
505;SDS011;551;48.524;9.056;2022-11-27T15:54:09;15.53;;;10.87;;
505;SDS011;551;48.524;9.056;2022-11-27T15:56:34;15.27;;;10.10;;
505;SDS011;551;48.524;9.056;2022-11-27T15:58:59;15.70;;;10.13;;
505;SDS011;551;48.524;9.056;2022-11-27T16:01:25;13.57;;;10.50;;
505;SDS011;551;48.524;9.056;2022-11-27T16:03:51;12.77;;;9.80;;
505;SDS011;551;48.524;9.056;2022-11-27T16:06:16;15.03;;;10.27;;
505;SDS011;551;48.524;9.056;2022-11-27T16:08:44;12.80;;;8.90;;
505;SDS011;551;48.524;9.056;2022-11-27T16:11:10;13.37;;;9.00;;
505;SDS011;551;48.524;9.056;2022-11-27T16:13:38;19.53;;;11.00;;
505;SDS011;551;48.524;9.056;2022-11-27T16:16:03;14.27;;;10.13;;
505;SDS011;551;48.524;9.056;2022-11-27T16:18:30;12.13;;;10.00;;
505;SDS011;551;48.524;9.056;2022-11-27T16:21:03;15.97;;;9.83;;
505;SDS011;551;48.524;9.056;2022-11-27T16:23:31;13.57;;;10.30;;
505;SDS011;551;48.524;9.056;2022-11-27T16:25:57;11.30;;;9.57;;
505;SDS011;551;48.524;9.056;2022-11-27T16:28:23;14.87;;;9.43;;
505;SDS011;551;48.524;9.056;2022-11-27T16:30:51;13.70;;;9.77;;
505;SDS011;551;48.524;9.056;2022-11-27T16:33:17;14.43;;;10.00;;
505;SDS011;551;48.524;9.056;2022-11-27T16:35:45;12.87;;;9.77;;
505;SDS011;551;48.524;9.056;2022-11-27T16:38:11;13.87;;;9.77;;
505;SDS011;551;48.524;9.056;2022-11-27T16:40:37;17.53;;;10.17;;
505;SDS011;551;48.524;9.056;2022-11-27T16:43:02;13.77;;;9.57;;
505;SDS011;551;48.524;9.056;2022-11-27T16:45:28;15.17;;;9.97;;
505;SDS011;551;48.524;9.056;2022-11-27T16:47:53;17.00;;;11.10;;
505;SDS011;551;48.524;9.056;2022-11-27T16:50:19;14.57;;;9.93;;
505;SDS011;551;48.524;9.056;2022-11-27T16:52:45;12.60;;;6.97;;
505;SDS011;551;48.524;9.056;2022-11-27T16:55:10;10.47;;;7.90;;
505;SDS011;551;48.524;9.056;2022-11-27T16:57:36;9.70;;;7.97;;
505;SDS011;551;48.524;9.056;2022-11-27T17:00:01;10.00;;;7.37;;
505;SDS011;551;48.524;9.056;2022-11-27T17:02:28;11.37;;;8.00;;
505;SDS011;551;48.524;9.056;2022-11-27T17:04:53;10.80;;;7.27;;
505;SDS011;551;48.524;9.056;2022-11-27T17:07:19;8.03;;;7.17;;
505;SDS011;551;48.524;9.056;2022-11-27T17:09:45;9.23;;;7.23;;
505;SDS011;551;48.524;9.056;2022-11-27T17:12:10;10.20;;;7.80;;